Time;durP1;ratioP1;P1;durP2;ratioP2;P2;SDS_P1;SDS_P2;PMS_P1;PMS_P2;Temp;Humidity;BMP_temperature;BMP_pressure;BME280_temperature;BME280_humidity;BME280_pressure;Samples;Min_cycle;Max_cycle;Signal;HPM_P1;HPM_P2
2023/04/06 00:01:39;;;;;;;;;;;12.00;54.80;;;;;;4977536;28;20432;-88
2023/04/06 00:04:10;;;;;;;;;;;12.00;55.20;;;;;;4978016;28;19950;-88
2023/04/06 00:06:54;;;;;;;;;;;12.00;54.80;;;;;;4978309;28;19914;-89
2023/04/06 00:09:20;;;;;;;;;;;12.00;54.80;;;;;;4994236;28;19909;-89
2023/04/06 00:15:09;;;;;;;;;;;12.00;54.80;;;;;;4994019;28;20342;-89
2023/04/06 00:20:56;;;;;;;;;;;12.00;54.80;;;;;;4992630;28;19932;-89
2023/04/06 00:27:01;;;;;;;;;;;12.00;54.80;;;;;;4946211;28;20020;-89
2023/04/06 00:29:26;;;;;;;;;;;11.90;54.80;;;;;;4971543;28;20129;-89
2023/04/06 00:32:07;;;;;;;;;;;11.90;54.70;;;;;;4947968;28;19911;-89
2023/04/06 00:34:35;;;;;;;;;;;11.90;54.80;;;;;;4955476;28;19994;-89
2023/04/06 00:37:01;;;;;;;;;;;11.90;54.80;;;;;;5014932;28;20302;-89
2023/04/06 00:39:26;;;;;;;;;;;11.90;54.70;;;;;;5034424;28;19960;-89
2023/04/06 00:41:52;;;;;;;;;;;11.90;54.80;;;;;;5033559;28;19909;-88
2023/04/06 00:44:18;;;;;;;;;;;11.90;54.70;;;;;;5032489;28;19948;-88
2023/04/06 00:46:47;;;;;;;;;;;11.90;54.70;;;;;;5034836;28;20459;-88
2023/04/06 00:49:12;;;;;;;;;;;11.90;54.70;;;;;;5034757;28;20075;-88
2023/04/06 00:51:44;;;;;;;;;;;11.90;54.70;;;;;;5034897;28;19909;-88
2023/04/06 00:55:11;;;;;;;;;;;11.90;54.60;;;;;;5034735;28;20199;-88
2023/04/06 01:00:35;;;;;;;;;;;11.90;54.50;;;;;;5060820;28;19920;-88
2023/04/06 01:03:05;;;;;;;;;;;11.90;54.40;;;;;;5043706;28;19970;-88
2023/04/06 01:08:44;;;;;;;;;;;11.90;54.40;;;;;;5015934;28;19910;-88
2023/04/06 01:11:28;;;;;;;;;;;11.90;54.30;;;;;;5021941;28;20174;-88
2023/04/06 01:13:57;;;;;;;;;;;12.00;54.20;;;;;;5017334;28;20244;-88
2023/04/06 01:16:25;;;;;;;;;;;12.00;54.20;;;;;;5017928;28;19921;-88
2023/04/06 01:18:51;;;;;;;;;;;12.00;54.10;;;;;;5017165;28;19920;-88
2023/04/06 01:21:26;;;;;;;;;;;12.00;54.10;;;;;;5032867;28;19917;-88
2023/04/06 01:23:57;;;;;;;;;;;12.00;54.00;;;;;;5016774;28;19917;-89
2023/04/06 01:26:26;;;;;;;;;;;12.00;54.00;;;;;;5000231;28;20252;-88
2023/04/06 01:28:52;;;;;;;;;;;12.00;53.90;;;;;;5017472;28;19913;-88
2023/04/06 01:31:29;;;;;;;;;;;12.00;53.90;;;;;;5015064;28;19968;-88
2023/04/06 01:34:07;;;;;;;;;;;12.00;53.80;;;;;;5016789;28;20222;-89
2023/04/06 01:36:50;;;;;;;;;;;12.00;53.80;;;;;;5017392;28;20072;-88
2023/04/06 01:39:19;;;;;;;;;;;12.00;53.80;;;;;;5015671;28;19921;-89
2023/04/06 01:41:46;;;;;;;;;;;11.90;53.70;;;;;;5032084;28;20055;-89
2023/04/06 01:44:21;;;;;;;;;;;12.00;53.70;;;;;;5022716;28;19914;-88
2023/04/06 01:46:50;;;;;;;;;;;12.00;53.70;;;;;;5061817;28;19912;-88
2023/04/06 01:49:27;;;;;;;;;;;12.00;53.70;;;;;;5056232;28;19920;-88
2023/04/06 01:51:54;;;;;;;;;;;12.00;53.70;;;;;;5057569;28;19919;-88
2023/04/06 01:54:22;;;;;;;;;;;12.00;53.70;;;;;;5056605;28;19909;-88
2023/04/06 01:57:05;;;;;;;;;;;12.00;53.60;;;;;;5057191;28;20100;-88
2023/04/06 02:00:07;;;;;;;;;;;12.00;53.60;;;;;;5056209;28;19924;-88
2023/04/06 02:02:26;;;;;;;;;;;11.90;53.50;;;;;;5056424;28;19909;-88
2023/04/06 02:08:05;;;;;;;;;;;12.00;53.50;;;;;;5016536;28;19925;-88
2023/04/06 02:13:18;;;;;;;;;;;11.90;53.40;;;;;;5046350;28;19990;-88
2023/04/06 02:15:43;;;;;;;;;;;11.90;53.50;;;;;;5038833;28;19919;-88
2023/04/06 02:18:09;;;;;;;;;;;11.90;53.40;;;;;;5038992;28;19909;-88
2023/04/06 02:20:38;;;;;;;;;;;11.90;53.40;;;;;;5054678;28;19995;-88
2023/04/06 02:23:18;;;;;;;;;;;11.90;53.40;;;;;;5056802;28;19913;-88
2023/04/06 02:25:53;;;;;;;;;;;11.90;53.40;;;;;;5055714;28;20285;-88
2023/04/06 02:28:30;;;;;;;;;;;11.90;53.40;;;;;;5057094;28;19987;-88
2023/04/06 02:31:15;;;;;;;;;;;11.80;53.30;;;;;;5046227;28;20000;-88
2023/04/06 02:34:02;;;;;;;;;;;11.90;53.40;;;;;;5037441;28;20072;-88
2023/04/06 02:36:53;;;;;;;;;;;11.90;53.30;;;;;;5040162;28;20283;-88
2023/04/06 02:39:21;;;;;;;;;;;11.90;53.30;;;;;;5034691;28;19908;-88
2023/04/06 02:44:49;;;;;;;;;;;11.80;53.30;;;;;;5054954;28;19934;-88
2023/04/06 02:50:10;;;;;;;;;;;11.70;53.40;;;;;;5045399;28;20270;-88
2023/04/06 02:52:42;;;;;;;;;;;11.70;53.50;;;;;;5055627;28;19955;-87
2023/04/06 02:55:29;;;;;;;;;;;11.60;53.60;;;;;;5054282;28;19909;-87
2023/04/06 02:58:16;;;;;;;;;;;11.60;53.70;;;;;;5075246;28;19913;-87
2023/04/06 03:00:50;;;;;;;;;;;11.50;53.70;;;;;;5076774;28;19916;-87
2023/04/06 03:06:48;;;;;;;;;;;11.90;53.20;;;;;;5034585;28;19920;-88
2023/04/06 03:09:19;;;;;;;;;;;12.70;51.60;;;;;;5017118;28;20250;-88
2023/04/06 03:11:45;;;;;;;;;;;13.30;50.30;;;;;;5035397;28;19905;-88
2023/04/06 03:14:21;;;;;;;;;;;13.50;49.80;;;;;;5019294;28;19909;-88
2023/04/06 03:16:49;;;;;;;;;;;13.60;49.50;;;;;;5011751;28;19928;-88
2023/04/06 03:19:31;;;;;;;;;;;13.70;49.40;;;;;;5017082;28;19924;-88
2023/04/06 03:21:56;;;;;;;;;;;13.80;49.20;;;;;;5034169;28;20007;-88
2023/04/06 03:24:22;;;;;;;;;;;13.80;49.10;;;;;;5017356;28;20003;-88
2023/04/06 03:32:44;;;;;;;;;;;13.80;48.90;;;;;;5075435;28;20325;-88
2023/04/06 03:35:36;;;;;;;;;;;13.80;48.90;;;;;;5055481;28;19999;-88
2023/04/06 03:38:28;;;;;;;;;;;13.80;49.00;;;;;;5075956;28;19963;-88
2023/04/06 03:41:09;;;;;;;;;;;13.70;49.00;;;;;;5050740;28;19912;-88
2023/04/06 03:43:35;;;;;;;;;;;13.70;49.00;;;;;;5057502;28;19917;-88
2023/04/06 03:46:21;;;;;;;;;;;13.60;49.00;;;;;;5076126;28;19973;-88
2023/04/06 03:48:49;;;;;;;;;;;13.60;49.10;;;;;;5075381;28;19916;-88
2023/04/06 03:51:16;;;;;;;;;;;13.50;49.10;;;;;;5072658;28;19912;-88
2023/04/06 03:53:42;;;;;;;;;;;13.50;49.20;;;;;;5054987;28;19913;-88
2023/04/06 03:56:35;;;;;;;;;;;13.40;49.30;;;;;;5056845;28;19916;-88
2023/04/06 04:01:53;;;;;;;;;;;13.20;49.50;;;;;;5011931;28;19914;-88
2023/04/06 04:04:21;;;;;;;;;;;13.20;49.60;;;;;;5048746;28;19923;-88
2023/04/06 04:10:06;;;;;;;;;;;13.00;49.80;;;;;;5074967;28;20252;-88
2023/04/06 04:12:31;;;;;;;;;;;13.00;49.80;;;;;;5062845;28;19931;-88
2023/04/06 04:15:00;;;;;;;;;;;12.90;49.90;;;;;;5057675;28;20297;-88
2023/04/06 04:17:48;;;;;;;;;;;12.90;50.00;;;;;;5075221;28;20002;-88
2023/04/06 04:20:14;;;;;;;;;;;12.80;50.00;;;;;;5025711;28;20007;-88
2023/04/06 04:22:40;;;;;;;;;;;12.80;50.10;;;;;;5075193;28;20007;-88
2023/04/06 04:25:12;;;;;;;;;;;12.80;50.20;;;;;;5057150;28;20023;-88
2023/04/06 04:28:05;;;;;;;;;;;12.70;50.20;;;;;;5056518;28;19913;-88
2023/04/06 04:30:49;;;;;;;;;;;12.70;50.20;;;;;;5073131;28;19963;-88
2023/04/06 04:33:30;;;;;;;;;;;12.70;50.20;;;;;;5073201;28;19916;-88
2023/04/06 04:36:30;;;;;;;;;;;12.80;50.20;;;;;;5056116;28;19919;-88
2023/04/06 04:39:00;;;;;;;;;;;12.80;50.10;;;;;;5072730;28;19919;-88
2023/04/06 04:44:29;;;;;;;;;;;12.80;49.90;;;;;;5076424;28;20225;-88
2023/04/06 04:47:01;;;;;;;;;;;13.00;49.70;;;;;;5077137;28;20401;-88
2023/04/06 04:49:30;;;;;;;;;;;13.10;49.50;;;;;;5060656;28;19908;-88
2023/04/06 04:52:23;;;;;;;;;;;13.20;49.30;;;;;;5077822;28;19908;-88
2023/04/06 04:54:49;;;;;;;;;;;13.20;49.10;;;;;;5060254;28;20234;-88
2023/04/06 04:57:36;;;;;;;;;;;13.40;49.00;;;;;;5077609;28;19963;-88
2023/04/06 05:00:38;;;;;;;;;;;13.40;48.90;;;;;;5060523;28;20259;-88
2023/04/06 05:03:28;;;;;;;;;;;13.40;48.70;;;;;;5076546;28;19920;-88
2023/04/06 05:05:59;;;;;;;;;;;13.50;48.70;;;;;;5069484;28;19916;-88
2023/04/06 05:08:31;;;;;;;;;;;13.50;48.60;;;;;;5057231;28;20209;-88
2023/04/06 05:11:12;;;;;;;;;;;13.50;48.50;;;;;;5055344;28;19916;-88
2023/04/06 05:13:47;;;;;;;;;;;13.50;48.50;;;;;;5057043;28;20395;-88
2023/04/06 05:16:27;;;;;;;;;;;13.50;48.50;;;;;;5073508;28;19984;-88
2023/04/06 05:18:53;;;;;;;;;;;13.50;48.50;;;;;;5055993;28;19909;-88
2023/04/06 05:21:21;;;;;;;;;;;13.40;48.50;;;;;;5054777;28;19974;-89
2023/04/06 05:23:47;;;;;;;;;;;13.40;48.60;;;;;;5056745;28;20053;-89
2023/04/06 05:26:21;;;;;;;;;;;13.40;48.60;;;;;;5055745;28;20311;-89
2023/04/06 05:28:56;;;;;;;;;;;13.40;48.50;;;;;;5056338;28;19919;-86
2023/04/06 05:31:34;;;;;;;;;;;13.40;48.50;;;;;;5056746;28;19920;-86
2023/04/06 05:34:00;;;;;;;;;;;13.50;48.50;;;;;;5038821;28;19920;-86
2023/04/06 05:36:32;;;;;;;;;;;13.50;48.30;;;;;;5072660;28;19920;-86
2023/04/06 05:39:00;;;;;;;;;;;13.50;48.20;;;;;;5073762;28;19916;-86
2023/04/06 05:41:38;;;;;;;;;;;13.60;48.10;;;;;;5056219;28;19920;-86
2023/04/06 05:44:13;;;;;;;;;;;13.60;48.10;;;;;;5054522;28;19917;-86
2023/04/06 05:46:39;;;;;;;;;;;13.60;48.10;;;;;;5053083;28;19916;-86
2023/04/06 05:49:05;;;;;;;;;;;13.70;48.10;;;;;;5053043;28;19935;-86
2023/04/06 05:51:40;;;;;;;;;;;13.70;48.00;;;;;;5054220;28;20250;-86
2023/04/06 05:54:09;;;;;;;;;;;13.80;48.00;;;;;;5053942;28;20062;-86
2023/04/06 05:56:58;;;;;;;;;;;13.80;47.90;;;;;;5054433;28;19912;-86
2023/04/06 05:59:59;;;;;;;;;;;13.90;47.90;;;;;;5049073;28;19948;-86
2023/04/06 06:02:30;;;;;;;;;;;14.00;47.80;;;;;;4990357;28;19922;-86
2023/04/06 06:05:05;;;;;;;;;;;14.00;47.70;;;;;;4974922;28;20138;-86
2023/04/06 06:07:30;;;;;;;;;;;14.10;47.60;;;;;;4973345;28;19921;-87
2023/04/06 06:09:56;;;;;;;;;;;14.30;47.50;;;;;;4988566;28;19917;-87
2023/04/06 06:12:41;;;;;;;;;;;14.60;47.30;;;;;;5018220;28;19909;-87
2023/04/06 06:15:09;;;;;;;;;;;14.90;47.10;;;;;;5069435;28;20335;-88
2023/04/06 06:17:35;;;;;;;;;;;15.30;46.60;;;;;;5050773;28;19913;-88
2023/04/06 06:20:08;;;;;;;;;;;15.60;46.20;;;;;;5049963;28;19915;-88
2023/04/06 06:22:33;;;;;;;;;;;15.90;45.70;;;;;;5050326;28;20258;-88
2023/04/06 06:24:59;;;;;;;;;;;16.20;45.30;;;;;;5051742;28;19951;-88
2023/04/06 06:27:24;;;;;;;;;;;16.50;45.00;;;;;;5052274;28;19913;-89
2023/04/06 06:29:59;;;;;;;;;;;16.80;44.60;;;;;;5051289;28;19908;-89
2023/04/06 06:32:30;;;;;;;;;;;17.00;44.30;;;;;;5052039;28;19942;-89
2023/04/06 06:35:02;;;;;;;;;;;17.20;44.00;;;;;;5049447;28;20410;-89
2023/04/06 06:37:37;;;;;;;;;;;17.40;43.70;;;;;;5053175;28;19909;-89
2023/04/06 06:40:03;;;;;;;;;;;17.60;43.40;;;;;;5051573;28;19920;-89
2023/04/06 06:42:34;;;;;;;;;;;17.80;43.10;;;;;;5049414;28;19909;-89
2023/04/06 06:45:00;;;;;;;;;;;18.00;42.90;;;;;;5050395;28;19920;-89
2023/04/06 06:47:29;;;;;;;;;;;18.20;42.70;;;;;;5050550;28;20180;-89
2023/04/06 06:50:01;;;;;;;;;;;18.40;42.40;;;;;;5066663;28;19916;-89
2023/04/06 06:52:28;;;;;;;;;;;18.60;42.20;;;;;;5051175;28;19965;-89
2023/04/06 06:54:54;;;;;;;;;;;18.70;41.90;;;;;;5048525;28;20297;-89
2023/04/06 06:57:20;;;;;;;;;;;18.90;41.70;;;;;;5048824;28;19909;-89
2023/04/06 06:59:48;;;;;;;;;;;19.10;41.50;;;;;;5050203;28;19908;-89
2023/04/06 07:02:14;;;;;;;;;;;19.30;41.40;;;;;;5050002;28;19961;-89
2023/04/06 07:04:43;;;;;;;;;;;19.50;41.10;;;;;;5051861;28;19917;-89
2023/04/06 07:07:08;;;;;;;;;;;19.60;40.90;;;;;;5058532;28;19921;-89
2023/04/06 07:09:40;;;;;;;;;;;19.80;40.80;;;;;;5068420;28;19970;-89
2023/04/06 07:12:12;;;;;;;;;;;19.90;40.60;;;;;;5051734;28;19912;-89
2023/04/06 07:14:37;;;;;;;;;;;20.10;40.50;;;;;;5052476;28;19977;-89
2023/04/06 07:17:06;;;;;;;;;;;20.20;40.30;;;;;;5069620;28;20194;-89
2023/04/06 07:19:38;;;;;;;;;;;20.30;40.20;;;;;;5051441;28;19920;-89
2023/04/06 07:22:30;;;;;;;;;;;20.40;40.00;;;;;;5051550;28;19934;-89
2023/04/06 07:24:56;;;;;;;;;;;20.60;39.90;;;;;;5050503;28;19908;-89
2023/04/06 07:27:21;;;;;;;;;;;20.80;39.80;;;;;;5051258;28;19923;-89
2023/04/06 07:29:47;;;;;;;;;;;20.90;39.60;;;;;;5047897;28;19912;-89
2023/04/06 07:32:35;;;;;;;;;;;21.10;39.50;;;;;;5048043;28;19908;-89
2023/04/06 07:35:01;;;;;;;;;;;21.20;39.30;;;;;;5049808;28;19919;-89
2023/04/06 07:40:28;;;;;;;;;;;21.50;39.20;;;;;;5044701;28;19916;-88
2023/04/06 07:42:53;;;;;;;;;;;21.60;39.00;;;;;;5047928;28;20088;-89
2023/04/06 07:45:22;;;;;;;;;;;21.70;38.90;;;;;;5068264;28;19920;-89
2023/04/06 07:47:51;;;;;;;;;;;21.80;38.80;;;;;;5050634;28;20217;-89
2023/04/06 07:50:19;;;;;;;;;;;21.90;38.60;;;;;;5051350;28;20008;-89
2023/04/06 07:52:48;;;;;;;;;;;22.10;38.50;;;;;;5051806;28;19959;-89
2023/04/06 07:55:13;;;;;;;;;;;22.10;38.40;;;;;;5050403;28;19975;-89
2023/04/06 07:57:39;;;;;;;;;;;22.10;38.40;;;;;;5048704;28;20144;-89
2023/04/06 08:00:20;;;;;;;;;;;22.10;38.30;;;;;;5050490;28;20216;-89
2023/04/06 08:02:46;;;;;;;;;;;22.30;38.20;;;;;;5049212;28;19908;-89
2023/04/06 08:05:11;;;;;;;;;;;22.20;38.10;;;;;;5066297;28;19919;-89
2023/04/06 08:07:43;;;;;;;;;;;22.30;38.00;;;;;;5049313;28;19912;-89
2023/04/06 08:10:09;;;;;;;;;;;22.30;38.00;;;;;;5050101;28;19994;-89
2023/04/06 08:12:40;;;;;;;;;;;22.40;38.00;;;;;;5049493;28;19920;-89
2023/04/06 08:15:06;;;;;;;;;;;22.50;38.30;;;;;;5067630;28;20360;-89
2023/04/06 08:17:35;;;;;;;;;;;22.70;37.70;;;;;;5049789;28;19908;-89
2023/04/06 08:20:03;;;;;;;;;;;22.90;37.60;;;;;;5049313;28;20258;-88
2023/04/06 08:22:28;;;;;;;;;;;23.20;37.40;;;;;;5049739;28;20137;-88
2023/04/06 08:24:54;;;;;;;;;;;23.40;37.30;;;;;;5049447;28;19919;-89
2023/04/06 08:27:29;;;;;;;;;;;23.50;37.10;;;;;;5048504;28;19973;-89
2023/04/06 08:29:54;;;;;;;;;;;23.70;37.00;;;;;;5047463;28;19909;-88
2023/04/06 08:32:20;;;;;;;;;;;23.80;36.90;;;;;;5064492;28;20198;-88
2023/04/06 08:34:46;;;;;;;;;;;24.00;36.70;;;;;;5064561;28;19916;-88
2023/04/06 08:37:11;;;;;;;;;;;24.10;36.60;;;;;;5048629;28;20260;-89
2023/04/06 08:39:43;;;;;;;;;;;24.20;36.50;;;;;;5045873;28;19916;-89
2023/04/06 08:42:18;;;;;;;;;;;24.40;36.40;;;;;;5065604;28;19909;-88
2023/04/06 08:44:53;;;;;;;;;;;24.70;36.20;;;;;;5026074;28;19924;-89
2023/04/06 08:47:25;;;;;;;;;;;24.80;36.10;;;;;;5047073;28;19913;-89
2023/04/06 08:49:58;;;;;;;;;;;24.60;36.40;;;;;;5047211;28;20150;-88
2023/04/06 08:52:25;;;;;;;;;;;24.50;36.20;;;;;;5062548;28;20132;-88
2023/04/06 08:55:00;;;;;;;;;;;23.30;36.30;;;;;;5046308;28;20182;-88
2023/04/06 08:57:26;;;;;;;;;;;22.40;37.20;;;;;;5043963;28;19913;-89
2023/04/06 08:59:55;;;;;;;;;;;21.70;37.80;;;;;;5048096;28;20044;-88
2023/04/06 09:02:24;;;;;;;;;;;21.30;38.10;;;;;;5064995;28;20051;-88
2023/04/06 09:04:53;;;;;;;;;;;21.00;38.40;;;;;;5045996;28;19973;-88
2023/04/06 09:07:19;;;;;;;;;;;20.50;38.80;;;;;;5064309;28;19912;-89
2023/04/06 09:09:51;;;;;;;;;;;20.00;39.20;;;;;;5046739;28;19946;-89
2023/04/06 09:12:33;;;;;;;;;;;19.60;39.60;;;;;;5045849;28;20021;-89
2023/04/06 09:15:05;;;;;;;;;;;19.30;40.00;;;;;;5046037;28;20214;-88
2023/04/06 09:17:33;;;;;;;;;;;19.00;40.40;;;;;;5063457;28;20380;-88
2023/04/06 09:20:05;;;;;;;;;;;19.00;40.60;;;;;;5045328;28;19973;-89
2023/04/06 09:22:37;;;;;;;;;;;18.90;40.70;;;;;;5065705;28;20071;-89
2023/04/06 09:25:05;;;;;;;;;;;18.60;40.80;;;;;;5048031;28;19995;-89
2023/04/06 09:27:37;;;;;;;;;;;18.40;41.10;;;;;;5048662;28;19913;-89
2023/04/06 09:30:18;;;;;;;;;;;18.20;41.30;;;;;;5048911;28;20201;-88
2023/04/06 09:32:45;;;;;;;;;;;17.90;41.50;;;;;;5051374;28;19927;-89
2023/04/06 09:35:11;;;;;;;;;;;17.80;41.80;;;;;;5049996;28;20399;-89
2023/04/06 09:37:37;;;;;;;;;;;17.80;42.00;;;;;;5049935;28;20310;-88
2023/04/06 09:40:18;;;;;;;;;;;17.80;42.10;;;;;;5050447;28;20153;-88
2023/04/06 09:42:47;;;;;;;;;;;18.00;42.00;;;;;;5050188;28;19951;-89
2023/04/06 09:45:13;;;;;;;;;;;18.20;41.90;;;;;;5069547;28;20220;-89
2023/04/06 09:47:40;;;;;;;;;;;18.30;41.80;;;;;;5038792;28;20274;-89
2023/04/06 09:50:21;;;;;;;;;;;18.70;41.50;;;;;;5050776;28;20256;-89
2023/04/06 09:52:51;;;;;;;;;;;19.00;41.30;;;;;;5051465;28;19991;-89
2023/04/06 09:55:26;;;;;;;;;;;19.10;41.10;;;;;;5051593;28;19919;-89
2023/04/06 09:58:04;;;;;;;;;;;19.10;41.10;;;;;;5069162;28;19955;-89
2023/04/06 10:00:40;;;;;;;;;;;18.90;41.20;;;;;;5053172;28;20263;-89
2023/04/06 10:03:24;;;;;;;;;;;18.70;41.30;;;;;;5052001;28;20156;-88
2023/04/06 10:05:54;;;;;;;;;;;18.50;41.30;;;;;;5052778;28;20069;-89
2023/04/06 10:08:22;;;;;;;;;;;18.30;41.60;;;;;;5050770;28;20389;-89
2023/04/06 10:10:57;;;;;;;;;;;18.10;41.80;;;;;;5049960;28;19915;-89
2023/04/06 10:13:23;;;;;;;;;;;18.00;41.90;;;;;;5067212;28;19909;-89
2023/04/06 10:15:49;;;;;;;;;;;17.90;42.10;;;;;;5051781;28;20152;-89
2023/04/06 10:18:16;;;;;;;;;;;17.90;42.20;;;;;;5050712;28;19919;-88
2023/04/06 10:29:51;;;;;;;;;;;17.70;42.40;;;;;;5065872;28;19934;-89
2023/04/06 10:32:16;;;;;;;;;;;17.70;42.50;;;;;;5048394;28;19909;-89
2023/04/06 10:34:42;;;;;;;;;;;17.60;42.70;;;;;;5047131;28;20190;-88
2023/04/06 10:37:21;;;;;;;;;;;17.50;42.70;;;;;;5050996;28;20007;-89
2023/04/06 10:40:06;;;;;;;;;;;17.50;42.90;;;;;;5049217;28;20189;-89
2023/04/06 10:42:38;;;;;;;;;;;17.40;43.00;;;;;;5038712;28;20258;-89
2023/04/06 10:45:06;;;;;;;;;;;17.30;43.10;;;;;;5047752;28;19916;-88
2023/04/06 10:47:41;;;;;;;;;;;17.20;43.20;;;;;;5049240;28;19920;-88
2023/04/06 10:50:06;;;;;;;;;;;17.20;43.30;;;;;;5065095;28;19973;-89
2023/04/06 10:52:35;;;;;;;;;;;17.10;43.40;;;;;;5048328;28;19917;-88
2023/04/06 10:55:01;;;;;;;;;;;17.10;43.50;;;;;;5047419;28;20031;-88
2023/04/06 10:57:31;;;;;;;;;;;17.00;43.50;;;;;;5047404;28;19919;-86
2023/04/06 11:00:04;;;;;;;;;;;17.00;43.60;;;;;;5045479;28;20074;-86
2023/04/06 11:02:31;;;;;;;;;;;17.00;43.70;;;;;;5048707;28;19970;-86
2023/04/06 11:04:59;;;;;;;;;;;16.90;44.10;;;;;;5066853;28;19915;-85
2023/04/06 11:07:30;;;;;;;;;;;16.90;43.80;;;;;;5048623;28;19975;-88
2023/04/06 11:09:56;;;;;;;;;;;16.90;43.80;;;;;;5048249;28;19919;-88
2023/04/06 11:12:28;;;;;;;;;;;16.90;43.90;;;;;;5065889;28;19913;-88
2023/04/06 11:15:06;;;;;;;;;;;16.90;44.00;;;;;;5048145;28;19913;-88
2023/04/06 11:17:33;;;;;;;;;;;16.90;44.00;;;;;;5049395;28;19919;-88
2023/04/06 11:32:14;;;;;;;;;;;16.90;44.20;;;;;;5066990;28;19939;-88
2023/04/06 11:34:40;;;;;;;;;;;16.90;44.20;;;;;;5051914;28;19909;-88
2023/04/06 11:37:32;;;;;;;;;;;16.90;44.30;;;;;;5049405;28;19951;-88
2023/04/06 11:40:05;;;;;;;;;;;16.90;44.40;;;;;;5065989;28;22511;-88
2023/04/06 11:42:34;;;;;;;;;;;16.90;44.40;;;;;;5050020;28;19932;-88
2023/04/06 11:45:23;;;;;;;;;;;16.90;44.50;;;;;;5050905;28;20241;-88
2023/04/06 11:47:59;;;;;;;;;;;16.80;44.50;;;;;;5046297;28;19927;-88
2023/04/06 11:50:34;;;;;;;;;;;16.80;44.60;;;;;;5066706;28;20356;-88
2023/04/06 11:53:01;;;;;;;;;;;16.70;44.60;;;;;;5048850;28;19908;-88
2023/04/06 11:55:27;;;;;;;;;;;16.70;44.80;;;;;;5048155;28;19916;-88
2023/04/06 11:57:56;;;;;;;;;;;16.70;44.90;;;;;;5048481;28;19981;-88
2023/04/06 12:04:01;;;;;;;;;;;16.60;45.00;;;;;;4962698;28;20061;-88
2023/04/06 12:06:27;;;;;;;;;;;16.60;45.20;;;;;;5043874;28;19947;-88
2023/04/06 12:08:52;;;;;;;;;;;16.60;45.20;;;;;;5046514;28;19943;-88
2023/04/06 12:11:36;;;;;;;;;;;16.60;45.20;;;;;;5065727;28;19913;-88
2023/04/06 12:14:04;;;;;;;;;;;16.60;45.70;;;;;;5045481;28;20209;-88
2023/04/06 12:16:34;;;;;;;;;;;16.50;45.40;;;;;;5045734;28;20143;-88
2023/04/06 12:19:03;;;;;;;;;;;16.50;45.40;;;;;;5046590;28;20177;-88
2023/04/06 12:21:30;;;;;;;;;;;16.50;45.50;;;;;;5045122;28;19916;-88
2023/04/06 12:24:08;;;;;;;;;;;16.50;45.50;;;;;;5046404;28;19916;-88
2023/04/06 12:26:49;;;;;;;;;;;16.50;45.60;;;;;;5047757;28;20026;-88
2023/04/06 12:29:18;;;;;;;;;;;16.50;45.60;;;;;;5047005;28;19909;-88
2023/04/06 12:31:46;;;;;;;;;;;16.50;45.60;;;;;;5044464;28;20357;-88
2023/04/06 12:34:12;;;;;;;;;;;16.50;45.70;;;;;;5063559;28;20019;-88
2023/04/06 12:36:53;;;;;;;;;;;16.50;45.70;;;;;;5044825;28;20102;-88
2023/04/06 12:39:18;;;;;;;;;;;16.50;45.80;;;;;;5046644;28;20273;-88
2023/04/06 12:41:44;;;;;;;;;;;16.50;45.80;;;;;;5048567;28;20350;-88
2023/04/06 12:44:11;;;;;;;;;;;16.50;45.90;;;;;;5048584;28;19978;-88
2023/04/06 12:46:43;;;;;;;;;;;16.50;45.90;;;;;;5048745;28;20172;-88
2023/04/06 12:49:19;;;;;;;;;;;16.50;46.00;;;;;;5050171;28;19909;-88
2023/04/06 12:51:44;;;;;;;;;;;16.40;46.00;;;;;;5065968;28;19908;-88
2023/04/06 12:54:13;;;;;;;;;;;16.40;46.10;;;;;;5048163;28;20085;-88
2023/04/06 12:56:39;;;;;;;;;;;16.40;46.20;;;;;;5046074;28;19909;-88
2023/04/06 12:59:17;;;;;;;;;;;16.40;46.20;;;;;;5046021;28;19908;-88
2023/04/06 13:01:43;;;;;;;;;;;16.40;46.30;;;;;;5046123;28;20397;-88
2023/04/06 13:04:09;;;;;;;;;;;16.30;46.40;;;;;;5048801;28;19909;-88
2023/04/06 13:06:35;;;;;;;;;;;16.30;46.40;;;;;;5051363;28;19923;-88
2023/04/06 13:09:00;;;;;;;;;;;16.30;46.50;;;;;;5052152;28;20037;-88
2023/04/06 13:11:35;;;;;;;;;;;16.30;46.50;;;;;;5070681;28;20479;-88
2023/04/06 13:14:01;;;;;;;;;;;16.30;46.60;;;;;;5051260;28;19982;-88
2023/04/06 13:16:27;;;;;;;;;;;16.20;46.60;;;;;;5068842;28;20392;-88
2023/04/06 13:18:56;;;;;;;;;;;16.20;46.70;;;;;;5049235;28;19908;-88
2023/04/06 13:21:24;;;;;;;;;;;16.20;46.80;;;;;;5065666;28;19916;-89
2023/04/06 13:23:53;;;;;;;;;;;16.20;46.90;;;;;;5048275;28;20103;-88
2023/04/06 13:26:19;;;;;;;;;;;16.10;47.00;;;;;;5047236;28;19923;-88
2023/04/06 13:29:05;;;;;;;;;;;16.10;47.00;;;;;;5049490;28;19936;-88
2023/04/06 13:31:31;;;;;;;;;;;16.10;47.10;;;;;;5054090;28;19908;-88
2023/04/06 13:34:15;;;;;;;;;;;16.00;47.10;;;;;;5068394;28;19920;-88
2023/04/06 13:36:44;;;;;;;;;;;16.00;47.60;;;;;;5049975;28;20183;-88
2023/04/06 13:39:12;;;;;;;;;;;16.00;47.70;;;;;;5068881;28;19908;-88
2023/04/06 13:41:38;;;;;;;;;;;16.00;47.30;;;;;;5050702;28;19909;-88
2023/04/06 13:44:06;;;;;;;;;;;16.00;47.30;;;;;;5052084;28;19923;-88
2023/04/06 13:46:32;;;;;;;;;;;16.00;47.40;;;;;;5052198;28;20164;-88
2023/04/06 13:49:16;;;;;;;;;;;16.00;47.40;;;;;;5052871;28;19920;-88
2023/04/06 13:51:42;;;;;;;;;;;15.90;47.50;;;;;;5047930;28;19914;-88
2023/04/06 13:54:08;;;;;;;;;;;15.90;47.60;;;;;;5046697;28;19912;-88
2023/04/06 13:56:36;;;;;;;;;;;15.90;47.60;;;;;;5049194;28;20278;-88
2023/04/06 13:59:05;;;;;;;;;;;15.90;47.70;;;;;;5049121;28;20132;-88
2023/04/06 14:01:31;;;;;;;;;;;15.90;47.80;;;;;;5046162;28;19916;-88
2023/04/06 14:03:56;;;;;;;;;;;15.80;47.80;;;;;;5044386;28;19919;-89
2023/04/06 14:06:31;;;;;;;;;;;15.80;47.80;;;;;;5052261;28;19920;-88
2023/04/06 14:09:14;;;;;;;;;;;15.80;47.90;;;;;;5068745;28;19912;-88
2023/04/06 14:12:12;;;;;;;;;;;15.80;48.00;;;;;;5047268;28;19955;-88
2023/04/06 14:14:38;;;;;;;;;;;15.80;48.10;;;;;;5023502;28;20164;-88
2023/04/06 14:17:19;;;;;;;;;;;15.80;48.10;;;;;;5049548;28;19908;-88
2023/04/06 14:19:44;;;;;;;;;;;15.80;48.10;;;;;;5072621;28;19932;-88
2023/04/06 14:22:10;;;;;;;;;;;15.80;48.20;;;;;;5074112;28;19935;-88
2023/04/06 14:24:42;;;;;;;;;;;15.80;48.20;;;;;;5070738;28;20212;-88
2023/04/06 14:27:14;;;;;;;;;;;15.80;48.30;;;;;;5052294;28;19913;-88
2023/04/06 14:29:39;;;;;;;;;;;15.80;48.30;;;;;;5052940;28;19995;-88
2023/04/06 14:32:05;;;;;;;;;;;15.80;48.40;;;;;;5049682;28;20243;-88
2023/04/06 14:34:30;;;;;;;;;;;15.70;48.40;;;;;;5052204;28;20007;-88
2023/04/06 14:36:56;;;;;;;;;;;15.70;48.50;;;;;;5049577;28;20160;-88
2023/04/06 14:39:21;;;;;;;;;;;15.70;48.50;;;;;;5049024;28;20190;-88
2023/04/06 14:41:47;;;;;;;;;;;15.70;48.50;;;;;;5048721;28;19923;-89
2023/04/06 14:44:16;;;;;;;;;;;15.70;48.60;;;;;;5047073;28;20091;-88
2023/04/06 14:46:42;;;;;;;;;;;15.70;48.60;;;;;;5048476;28;20335;-88
2023/04/06 14:49:07;;;;;;;;;;;15.70;48.70;;;;;;5049484;28;20039;-88
2023/04/06 14:51:36;;;;;;;;;;;15.60;48.70;;;;;;5048127;28;19920;-89
2023/04/06 14:54:04;;;;;;;;;;;15.60;48.70;;;;;;5049520;28;20165;-89
2023/04/06 14:56:33;;;;;;;;;;;15.60;49.20;;;;;;5070377;28;19942;-89
2023/04/06 14:59:11;;;;;;;;;;;15.60;48.90;;;;;;5075175;28;20258;-88
2023/04/06 15:01:42;;;;;;;;;;;15.60;48.90;;;;;;5056175;28;19966;-89
2023/04/06 15:04:08;;;;;;;;;;;15.50;48.90;;;;;;5048865;28;20116;-89
2023/04/06 15:06:33;;;;;;;;;;;15.50;49.00;;;;;;5045616;28;19959;-88
2023/04/06 15:08:59;;;;;;;;;;;15.50;49.00;;;;;;5045726;28;20184;-89
2023/04/06 15:11:25;;;;;;;;;;;15.60;49.10;;;;;;5065129;28;20004;-89
2023/04/06 15:13:57;;;;;;;;;;;15.50;49.20;;;;;;5065134;28;19908;-89
2023/04/06 15:16:22;;;;;;;;;;;15.50;49.20;;;;;;5047652;28;20009;-89
2023/04/06 15:18:48;;;;;;;;;;;15.50;49.30;;;;;;5049731;28;20001;-89
2023/04/06 15:21:19;;;;;;;;;;;15.40;49.30;;;;;;5047414;28;20314;-89
2023/04/06 15:23:51;;;;;;;;;;;15.50;49.40;;;;;;5047977;28;19934;-89
2023/04/06 15:26:20;;;;;;;;;;;15.40;49.40;;;;;;5046263;28;19916;-89
2023/04/06 15:28:52;;;;;;;;;;;15.40;49.50;;;;;;5049482;28;19916;-88
2023/04/06 15:31:26;;;;;;;;;;;15.40;49.50;;;;;;5065453;28;20355;-89
2023/04/06 15:33:54;;;;;;;;;;;15.30;49.60;;;;;;5050737;28;19908;-88
2023/04/06 15:36:29;;;;;;;;;;;15.30;49.60;;;;;;5055915;28;20369;-89
2023/04/06 15:39:30;;;;;;;;;;;15.30;49.70;;;;;;5051074;28;19912;-89
2023/04/06 15:42:01;;;;;;;;;;;15.30;49.80;;;;;;5045715;28;19919;-90
2023/04/06 15:44:27;;;;;;;;;;;15.30;49.90;;;;;;5048838;28;19912;-88
2023/04/06 15:46:53;;;;;;;;;;;15.20;49.90;;;;;;5067188;28;19993;-88
2023/04/06 15:49:21;;;;;;;;;;;15.20;49.90;;;;;;5066643;28;20135;-88
2023/04/06 15:51:50;;;;;;;;;;;15.20;50.00;;;;;;5068173;28;20137;-88
2023/04/06 15:54:24;;;;;;;;;;;15.20;50.10;;;;;;5049439;28;20278;-88
2023/04/06 15:56:53;;;;;;;;;;;15.10;50.10;;;;;;5066201;28;20128;-88